sensor_id;sensor_type;location;lat;lon;timestamp;temperature;humidity
64855;DHT22;51321;50.428;8.378;2023-11-21T00:00:17;8.90;99.90
64855;DHT22;51321;50.428;8.378;2023-11-21T00:02:57;8.90;99.90
64855;DHT22;51321;50.428;8.378;2023-11-21T00:05:39;8.90;99.90
64855;DHT22;51321;50.428;8.378;2023-11-21T00:08:20;8.90;99.90
64855;DHT22;51321;50.428;8.378;2023-11-21T00:11:00;8.80;99.90
64855;DHT22;51321;50.428;8.378;2023-11-21T00:13:44;8.70;99.90
64855;DHT22;51321;50.428;8.378;2023-11-21T00:16:24;8.70;99.90
64855;DHT22;51321;50.428;8.378;2023-11-21T00:19:05;8.70;99.90
64855;DHT22;51321;50.428;8.378;2023-11-21T00:21:46;8.60;99.90
64855;DHT22;51321;50.428;8.378;2023-11-21T00:24:27;8.50;99.90
64855;DHT22;51321;50.428;8.378;2023-11-21T00:27:07;8.50;99.90
64855;DHT22;51321;50.428;8.378;2023-11-21T00:29:48;8.50;99.90
64855;DHT22;51321;50.428;8.378;2023-11-21T00:32:28;8.50;99.90
64855;DHT22;51321;50.428;8.378;2023-11-21T00:35:09;8.50;99.90
64855;DHT22;51321;50.428;8.378;2023-11-21T00:37:51;8.60;99.90
64855;DHT22;51321;50.428;8.378;2023-11-21T00:40:32;8.60;99.90
64855;DHT22;51321;50.428;8.378;2023-11-21T00:43:13;8.70;99.90
64855;DHT22;51321;50.428;8.378;2023-11-21T00:45:54;8.70;99.90
64855;DHT22;51321;50.428;8.378;2023-11-21T00:48:35;8.70;99.90
64855;DHT22;51321;50.428;8.378;2023-11-21T00:51:16;8.70;99.90
64855;DHT22;51321;50.428;8.378;2023-11-21T00:53:58;8.70;99.90
64855;DHT22;51321;50.428;8.378;2023-11-21T00:56:39;8.70;99.90
64855;DHT22;51321;50.428;8.378;2023-11-21T00:59:20;8.70;99.90
64855;DHT22;51321;50.428;8.378;2023-11-21T01:02:01;8.80;99.90
64855;DHT22;51321;50.428;8.378;2023-11-21T01:04:44;8.80;99.90
64855;DHT22;51321;50.428;8.378;2023-11-21T01:07:26;8.80;99.90
64855;DHT22;51321;50.428;8.378;2023-11-21T01:10:10;8.80;99.90
64855;DHT22;51321;50.428;8.378;2023-11-21T01:12:51;8.80;99.90
64855;DHT22;51321;50.428;8.378;2023-11-21T01:15:32;8.80;99.90
64855;DHT22;51321;50.428;8.378;2023-11-21T01:18:12;8.80;99.90
64855;DHT22;51321;50.428;8.378;2023-11-21T01:20:53;8.90;99.90
64855;DHT22;51321;50.428;8.378;2023-11-21T01:23:36;8.90;99.90
64855;DHT22;51321;50.428;8.378;2023-11-21T01:26:18;8.80;99.90
64855;DHT22;51321;50.428;8.378;2023-11-21T01:28:59;8.80;99.90
64855;DHT22;51321;50.428;8.378;2023-11-21T01:31:39;8.90;99.90
64855;DHT22;51321;50.428;8.378;2023-11-21T01:34:20;8.90;99.90
64855;DHT22;51321;50.428;8.378;2023-11-21T01:37:01;8.90;99.90
64855;DHT22;51321;50.428;8.378;2023-11-21T01:39:44;8.90;99.90
64855;DHT22;51321;50.428;8.378;2023-11-21T01:42:27;8.90;99.90
64855;DHT22;51321;50.428;8.378;2023-11-21T01:45:09;8.90;99.90
64855;DHT22;51321;50.428;8.378;2023-11-21T01:47:51;8.80;99.90
64855;DHT22;51321;50.428;8.378;2023-11-21T01:50:33;8.90;99.90
64855;DHT22;51321;50.428;8.378;2023-11-21T01:53:14;8.90;99.90
64855;DHT22;51321;50.428;8.378;2023-11-21T01:55:55;8.90;99.90
64855;DHT22;51321;50.428;8.378;2023-11-21T01:58:37;9.00;99.90
64855;DHT22;51321;50.428;8.378;2023-11-21T02:01:17;9.00;99.90
64855;DHT22;51321;50.428;8.378;2023-11-21T02:03:58;9.00;99.90
64855;DHT22;51321;50.428;8.378;2023-11-21T02:06:39;8.90;99.90
64855;DHT22;51321;50.428;8.378;2023-11-21T02:09:22;8.90;99.90
64855;DHT22;51321;50.428;8.378;2023-11-21T02:12:05;8.90;99.90
64855;DHT22;51321;50.428;8.378;2023-11-21T02:14:49;9.00;99.90
64855;DHT22;51321;50.428;8.378;2023-11-21T02:17:30;9.10;99.90
64855;DHT22;51321;50.428;8.378;2023-11-21T02:20:11;9.10;99.90
64855;DHT22;51321;50.428;8.378;2023-11-21T02:22:57;8.90;99.90
64855;DHT22;51321;50.428;8.378;2023-11-21T02:25:38;8.80;99.90
64855;DHT22;51321;50.428;8.378;2023-11-21T02:28:19;8.80;99.90
64855;DHT22;51321;50.428;8.378;2023-11-21T02:31:05;8.80;99.90
64855;DHT22;51321;50.428;8.378;2023-11-21T02:33:47;8.80;99.90
64855;DHT22;51321;50.428;8.378;2023-11-21T02:36:28;8.80;99.90
64855;DHT22;51321;50.428;8.378;2023-11-21T02:39:10;8.90;99.90
64855;DHT22;51321;50.428;8.378;2023-11-21T02:41:50;8.80;99.90
64855;DHT22;51321;50.428;8.378;2023-11-21T02:44:31;8.70;99.90
64855;DHT22;51321;50.428;8.378;2023-11-21T02:47:13;8.70;99.90
64855;DHT22;51321;50.428;8.378;2023-11-21T02:49:58;8.70;99.90
64855;DHT22;51321;50.428;8.378;2023-11-21T02:52:41;8.80;99.90
64855;DHT22;51321;50.428;8.378;2023-11-21T02:55:23;8.70;99.90
64855;DHT22;51321;50.428;8.378;2023-11-21T02:58:06;8.80;99.90
64855;DHT22;51321;50.428;8.378;2023-11-21T03:00:47;8.80;99.90
64855;DHT22;51321;50.428;8.378;2023-11-21T03:03:27;8.80;99.90
64855;DHT22;51321;50.428;8.378;2023-11-21T03:06:08;8.90;99.90
64855;DHT22;51321;50.428;8.378;2023-11-21T03:08:49;8.90;99.90
64855;DHT22;51321;50.428;8.378;2023-11-21T03:11:32;8.90;99.90
64855;DHT22;51321;50.428;8.378;2023-11-21T03:14:13;8.90;99.90
64855;DHT22;51321;50.428;8.378;2023-11-21T03:16:53;9.00;99.90
64855;DHT22;51321;50.428;8.378;2023-11-21T03:19:34;9.00;99.90
64855;DHT22;51321;50.428;8.378;2023-11-21T03:22:15;9.00;99.90
64855;DHT22;51321;50.428;8.378;2023-11-21T03:24:58;8.90;99.90
64855;DHT22;51321;50.428;8.378;2023-11-21T03:27:41;8.90;99.90
64855;DHT22;51321;50.428;8.378;2023-11-21T03:30:23;8.90;99.90
64855;DHT22;51321;50.428;8.378;2023-11-21T03:33:04;8.90;99.90
64855;DHT22;51321;50.428;8.378;2023-11-21T03:35:44;8.90;99.90
64855;DHT22;51321;50.428;8.378;2023-11-21T03:38:25;8.80;99.90
64855;DHT22;51321;50.428;8.378;2023-11-21T03:41:05;8.80;99.90
64855;DHT22;51321;50.428;8.378;2023-11-21T03:43:48;8.80;99.90
64855;DHT22;51321;50.428;8.378;2023-11-21T03:46:29;8.90;99.90
64855;DHT22;51321;50.428;8.378;2023-11-21T03:49:09;8.90;99.90
64855;DHT22;51321;50.428;8.378;2023-11-21T03:51:49;8.90;99.90
64855;DHT22;51321;50.428;8.378;2023-11-21T03:54:30;8.90;99.90
64855;DHT22;51321;50.428;8.378;2023-11-21T03:57:10;9.00;99.90
64855;DHT22;51321;50.428;8.378;2023-11-21T03:59:53;8.90;99.90
64855;DHT22;51321;50.428;8.378;2023-11-21T04:02:33;8.90;99.90
64855;DHT22;51321;50.428;8.378;2023-11-21T04:05:14;8.90;99.90
64855;DHT22;51321;50.428;8.378;2023-11-21T04:07:54;8.90;99.90
64855;DHT22;51321;50.428;8.378;2023-11-21T04:10:35;9.00;99.90
64855;DHT22;51321;50.428;8.378;2023-11-21T04:13:15;8.90;99.90
64855;DHT22;51321;50.428;8.378;2023-11-21T04:15:59;8.90;99.90
64855;DHT22;51321;50.428;8.378;2023-11-21T04:18:42;8.80;99.90
64855;DHT22;51321;50.428;8.378;2023-11-21T04:21:22;8.80;99.90
64855;DHT22;51321;50.428;8.378;2023-11-21T04:24:03;8.80;99.90
64855;DHT22;51321;50.428;8.378;2023-11-21T04:26:44;8.80;99.90
64855;DHT22;51321;50.428;8.378;2023-11-21T04:29:24;8.70;99.90
64855;DHT22;51321;50.428;8.378;2023-11-21T04:32:07;8.70;99.90
64855;DHT22;51321;50.428;8.378;2023-11-21T04:34:47;8.70;99.90
64855;DHT22;51321;50.428;8.378;2023-11-21T04:37:29;8.70;99.90
64855;DHT22;51321;50.428;8.378;2023-11-21T04:40:12;8.70;99.90
64855;DHT22;51321;50.428;8.378;2023-11-21T04:42:53;8.70;99.90
64855;DHT22;51321;50.428;8.378;2023-11-21T04:45:36;8.70;99.90
64855;DHT22;51321;50.428;8.378;2023-11-21T04:48:19;8.70;99.90
64855;DHT22;51321;50.428;8.378;2023-11-21T04:50:59;8.70;99.90
64855;DHT22;51321;50.428;8.378;2023-11-21T04:53:40;8.80;99.90
64855;DHT22;51321;50.428;8.378;2023-11-21T04:56:20;8.80;99.90
64855;DHT22;51321;50.428;8.378;2023-11-21T04:59:01;8.80;99.90
64855;DHT22;51321;50.428;8.378;2023-11-21T05:01:42;8.80;99.90
64855;DHT22;51321;50.428;8.378;2023-11-21T05:04:24;8.70;99.90
64855;DHT22;51321;50.428;8.378;2023-11-21T05:07:04;8.70;99.90
64855;DHT22;51321;50.428;8.378;2023-11-21T05:09:44;8.80;99.90
64855;DHT22;51321;50.428;8.378;2023-11-21T05:12:25;8.80;99.90
64855;DHT22;51321;50.428;8.378;2023-11-21T05:15:07;8.80;99.90
64855;DHT22;51321;50.428;8.378;2023-11-21T05:17:49;8.80;99.90
64855;DHT22;51321;50.428;8.378;2023-11-21T05:20:32;8.80;99.90
64855;DHT22;51321;50.428;8.378;2023-11-21T05:23:13;8.80;99.90
64855;DHT22;51321;50.428;8.378;2023-11-21T05:25:53;8.80;99.90
64855;DHT22;51321;50.428;8.378;2023-11-21T05:28:35;8.80;99.90
64855;DHT22;51321;50.428;8.378;2023-11-21T05:31:15;8.80;99.90
64855;DHT22;51321;50.428;8.378;2023-11-21T05:33:56;8.80;99.90
64855;DHT22;51321;50.428;8.378;2023-11-21T05:36:39;8.80;99.90
64855;DHT22;51321;50.428;8.378;2023-11-21T05:39:20;8.80;99.90
64855;DHT22;51321;50.428;8.378;2023-11-21T05:42:01;8.80;99.90
64855;DHT22;51321;50.428;8.378;2023-11-21T05:44:43;8.70;99.90
64855;DHT22;51321;50.428;8.378;2023-11-21T05:47:23;8.80;99.90
64855;DHT22;51321;50.428;8.378;2023-11-21T05:50:05;8.70;99.90
64855;DHT22;51321;50.428;8.378;2023-11-21T05:52:50;8.70;99.90
64855;DHT22;51321;50.428;8.378;2023-11-21T05:55:30;8.70;99.90
64855;DHT22;51321;50.428;8.378;2023-11-21T05:58:11;8.70;99.90
64855;DHT22;51321;50.428;8.378;2023-11-21T06:00:53;8.70;99.90
64855;DHT22;51321;50.428;8.378;2023-11-21T06:03:33;8.70;99.90
64855;DHT22;51321;50.428;8.378;2023-11-21T06:06:14;8.70;99.90
64855;DHT22;51321;50.428;8.378;2023-11-21T06:08:56;8.70;99.90
64855;DHT22;51321;50.428;8.378;2023-11-21T06:11:37;8.70;99.90
64855;DHT22;51321;50.428;8.378;2023-11-21T06:14:17;8.60;99.90
64855;DHT22;51321;50.428;8.378;2023-11-21T06:16:59;8.70;99.90
64855;DHT22;51321;50.428;8.378;2023-11-21T06:19:42;8.70;99.90
64855;DHT22;51321;50.428;8.378;2023-11-21T06:22:25;8.60;99.90
64855;DHT22;51321;50.428;8.378;2023-11-21T06:25:07;8.60;99.90
64855;DHT22;51321;50.428;8.378;2023-11-21T06:27:49;8.60;99.90
64855;DHT22;51321;50.428;8.378;2023-11-21T06:30:31;8.70;99.90
64855;DHT22;51321;50.428;8.378;2023-11-21T06:33:11;8.70;99.90
64855;DHT22;51321;50.428;8.378;2023-11-21T06:35:53;8.60;99.90
64855;DHT22;51321;50.428;8.378;2023-11-21T06:38:35;8.60;99.90
64855;DHT22;51321;50.428;8.378;2023-11-21T06:41:16;8.70;99.90
64855;DHT22;51321;50.428;8.378;2023-11-21T06:43:59;8.70;99.90
64855;DHT22;51321;50.428;8.378;2023-11-21T06:46:39;8.70;99.90
64855;DHT22;51321;50.428;8.378;2023-11-21T06:49:21;8.60;99.90
64855;DHT22;51321;50.428;8.378;2023-11-21T06:52:02;8.50;99.90
64855;DHT22;51321;50.428;8.378;2023-11-21T06:54:47;8.50;99.90
64855;DHT22;51321;50.428;8.378;2023-11-21T06:57:30;8.50;99.90
64855;DHT22;51321;50.428;8.378;2023-11-21T07:00:12;8.50;99.90
64855;DHT22;51321;50.428;8.378;2023-11-21T07:02:53;8.50;99.90
64855;DHT22;51321;50.428;8.378;2023-11-21T07:05:34;8.50;99.90
64855;DHT22;51321;50.428;8.378;2023-11-21T07:08:14;8.50;99.90
64855;DHT22;51321;50.428;8.378;2023-11-21T07:10:55;8.40;99.90
64855;DHT22;51321;50.428;8.378;2023-11-21T07:13:37;8.50;99.90
64855;DHT22;51321;50.428;8.378;2023-11-21T07:16:18;8.50;99.90
64855;DHT22;51321;50.428;8.378;2023-11-21T07:18:59;8.50;99.90
64855;DHT22;51321;50.428;8.378;2023-11-21T07:21:40;8.40;99.90
64855;DHT22;51321;50.428;8.378;2023-11-21T07:24:21;8.40;99.90
64855;DHT22;51321;50.428;8.378;2023-11-21T07:27:02;8.40;99.90
64855;DHT22;51321;50.428;8.378;2023-11-21T07:29:44;8.40;99.90
64855;DHT22;51321;50.428;8.378;2023-11-21T07:32:25;8.40;99.90
64855;DHT22;51321;50.428;8.378;2023-11-21T07:35:06;8.40;99.90
64855;DHT22;51321;50.428;8.378;2023-11-21T07:37:48;8.50;99.90
64855;DHT22;51321;50.428;8.378;2023-11-21T07:40:28;8.50;99.90
64855;DHT22;51321;50.428;8.378;2023-11-21T07:43:09;8.50;99.90
64855;DHT22;51321;50.428;8.378;2023-11-21T07:45:52;8.50;99.90
64855;DHT22;51321;50.428;8.378;2023-11-21T07:48:32;8.50;99.90
64855;DHT22;51321;50.428;8.378;2023-11-21T07:51:12;8.60;99.90
64855;DHT22;51321;50.428;8.378;2023-11-21T07:53:53;8.50;99.90
64855;DHT22;51321;50.428;8.378;2023-11-21T07:56:33;8.60;99.90
64855;DHT22;51321;50.428;8.378;2023-11-21T07:59:13;8.60;99.90
64855;DHT22;51321;50.428;8.378;2023-11-21T08:01:56;8.60;99.90
64855;DHT22;51321;50.428;8.378;2023-11-21T08:04:36;8.70;99.90
64855;DHT22;51321;50.428;8.378;2023-11-21T08:07:16;8.70;99.90
64855;DHT22;51321;50.428;8.378;2023-11-21T08:09:57;8.80;99.90
64855;DHT22;51321;50.428;8.378;2023-11-21T08:12:38;8.90;99.90
64855;DHT22;51321;50.428;8.378;2023-11-21T08:15:19;8.90;99.90
64855;DHT22;51321;50.428;8.378;2023-11-21T08:18:02;8.90;99.90
64855;DHT22;51321;50.428;8.378;2023-11-21T08:20:43;9.00;99.90
64855;DHT22;51321;50.428;8.378;2023-11-21T08:23:26;9.10;99.90
64855;DHT22;51321;50.428;8.378;2023-11-21T08:26:07;9.10;99.90
64855;DHT22;51321;50.428;8.378;2023-11-21T08:28:49;9.10;99.90
64855;DHT22;51321;50.428;8.378;2023-11-21T08:31:31;9.10;99.90
64855;DHT22;51321;50.428;8.378;2023-11-21T08:34:13;9.20;99.90
64855;DHT22;51321;50.428;8.378;2023-11-21T08:36:55;9.30;99.90
64855;DHT22;51321;50.428;8.378;2023-11-21T08:39:36;9.30;99.90
64855;DHT22;51321;50.428;8.378;2023-11-21T08:42:17;9.30;99.90
64855;DHT22;51321;50.428;8.378;2023-11-21T08:44:58;9.30;99.90
64855;DHT22;51321;50.428;8.378;2023-11-21T08:47:38;9.30;99.90
64855;DHT22;51321;50.428;8.378;2023-11-21T08:50:24;9.40;99.90
64855;DHT22;51321;50.428;8.378;2023-11-21T08:53:04;9.40;99.90
64855;DHT22;51321;50.428;8.378;2023-11-21T08:55:45;9.50;99.90
64855;DHT22;51321;50.428;8.378;2023-11-21T08:58:29;9.50;99.90
64855;DHT22;51321;50.428;8.378;2023-11-21T09:01:10;9.50;99.90
64855;DHT22;51321;50.428;8.378;2023-11-21T09:03:51;9.60;99.90
64855;DHT22;51321;50.428;8.378;2023-11-21T09:06:33;9.60;99.90
64855;DHT22;51321;50.428;8.378;2023-11-21T09:09:14;9.70;99.90
64855;DHT22;51321;50.428;8.378;2023-11-21T09:11:58;9.70;99.90
64855;DHT22;51321;50.428;8.378;2023-11-21T09:14:40;9.70;99.90
64855;DHT22;51321;50.428;8.378;2023-11-21T09:17:21;9.80;99.90
64855;DHT22;51321;50.428;8.378;2023-11-21T09:20:02;9.80;99.90
64855;DHT22;51321;50.428;8.378;2023-11-21T09:22:51;9.80;99.90
64855;DHT22;51321;50.428;8.378;2023-11-21T09:25:31;9.80;99.90
64855;DHT22;51321;50.428;8.378;2023-11-21T09:28:13;9.90;99.90
64855;DHT22;51321;50.428;8.378;2023-11-21T09:30:54;9.90;99.90
64855;DHT22;51321;50.428;8.378;2023-11-21T09:33:37;10.00;99.90
64855;DHT22;51321;50.428;8.378;2023-11-21T09:36:19;10.00;99.90
64855;DHT22;51321;50.428;8.378;2023-11-21T09:39:03;10.00;99.90
64855;DHT22;51321;50.428;8.378;2023-11-21T09:41:46;10.10;99.90
64855;DHT22;51321;50.428;8.378;2023-11-21T09:44:35;10.10;99.90
64855;DHT22;51321;50.428;8.378;2023-11-21T09:47:16;10.30;99.90
64855;DHT22;51321;50.428;8.378;2023-11-21T09:49:59;10.30;99.90
64855;DHT22;51321;50.428;8.378;2023-11-21T09:52:43;10.40;99.90
64855;DHT22;51321;50.428;8.378;2023-11-21T09:55:30;10.40;99.90
64855;DHT22;51321;50.428;8.378;2023-11-21T09:58:15;10.40;99.90
64855;DHT22;51321;50.428;8.378;2023-11-21T10:00:57;10.20;99.90
64855;DHT22;51321;50.428;8.378;2023-11-21T10:03:39;10.10;99.90
64855;DHT22;51321;50.428;8.378;2023-11-21T10:06:23;10.20;99.90
64855;DHT22;51321;50.428;8.378;2023-11-21T10:09:05;10.30;99.90
64855;DHT22;51321;50.428;8.378;2023-11-21T10:11:52;10.40;99.90
64855;DHT22;51321;50.428;8.378;2023-11-21T10:14:33;10.50;99.90
64855;DHT22;51321;50.428;8.378;2023-11-21T10:17:14;10.60;99.90
64855;DHT22;51321;50.428;8.378;2023-11-21T10:19:55;10.70;99.90
64855;DHT22;51321;50.428;8.378;2023-11-21T10:22:37;10.70;99.90
64855;DHT22;51321;50.428;8.378;2023-11-21T10:25:18;10.70;99.90
64855;DHT22;51321;50.428;8.378;2023-11-21T10:28:01;10.70;99.90
64855;DHT22;51321;50.428;8.378;2023-11-21T10:30:44;10.60;99.90
64855;DHT22;51321;50.428;8.378;2023-11-21T10:33:27;10.60;99.90
64855;DHT22;51321;50.428;8.378;2023-11-21T10:36:08;10.50;99.90
64855;DHT22;51321;50.428;8.378;2023-11-21T10:38:50;10.50;99.90
64855;DHT22;51321;50.428;8.378;2023-11-21T10:41:33;10.50;99.90
64855;DHT22;51321;50.428;8.378;2023-11-21T10:44:17;10.50;99.90
64855;DHT22;51321;50.428;8.378;2023-11-21T10:47:00;10.50;99.90
64855;DHT22;51321;50.428;8.378;2023-11-21T10:49:41;10.70;99.90
64855;DHT22;51321;50.428;8.378;2023-11-21T10:52:24;10.90;99.90
64855;DHT22;51321;50.428;8.378;2023-11-21T10:55:15;11.10;99.90
64855;DHT22;51321;50.428;8.378;2023-11-21T10:57:57;11.20;99.90
64855;DHT22;51321;50.428;8.378;2023-11-21T11:00:39;11.30;99.90
64855;DHT22;51321;50.428;8.378;2023-11-21T11:03:20;11.30;99.90
64855;DHT22;51321;50.428;8.378;2023-11-21T11:06:02;11.50;99.90
64855;DHT22;51321;50.428;8.378;2023-11-21T11:08:45;11.50;99.90
64855;DHT22;51321;50.428;8.378;2023-11-21T11:11:27;11.40;99.90
64855;DHT22;51321;50.428;8.378;2023-11-21T11:14:08;11.40;99.90
64855;DHT22;51321;50.428;8.378;2023-11-21T11:16:53;11.50;99.90
64855;DHT22;51321;50.428;8.378;2023-11-21T11:19:34;11.60;99.90
64855;DHT22;51321;50.428;8.378;2023-11-21T11:22:19;11.60;99.90
64855;DHT22;51321;50.428;8.378;2023-11-21T11:25:14;11.70;99.90
64855;DHT22;51321;50.428;8.378;2023-11-21T11:28:00;11.50;99.90
64855;DHT22;51321;50.428;8.378;2023-11-21T11:30:47;11.40;99.90
64855;DHT22;51321;50.428;8.378;2023-11-21T11:33:34;11.40;99.90
64855;DHT22;51321;50.428;8.378;2023-11-21T11:36:17;11.20;99.90
64855;DHT22;51321;50.428;8.378;2023-11-21T11:39:00;11.10;99.90
64855;DHT22;51321;50.428;8.378;2023-11-21T11:41:43;11.10;99.90
64855;DHT22;51321;50.428;8.378;2023-11-21T11:47:26;11.20;99.90
64855;DHT22;51321;50.428;8.378;2023-11-21T11:50:14;11.40;99.90
64855;DHT22;51321;50.428;8.378;2023-11-21T11:53:02;11.60;99.90
64855;DHT22;51321;50.428;8.378;2023-11-21T11:55:58;11.60;99.90
64855;DHT22;51321;50.428;8.378;2023-11-21T11:58:59;11.40;99.90
64855;DHT22;51321;50.428;8.378;2023-11-21T12:01:44;11.30;99.90
64855;DHT22;51321;50.428;8.378;2023-11-21T12:04:27;11.30;99.90
64855;DHT22;51321;50.428;8.378;2023-11-21T12:07:15;11.40;99.90
64855;DHT22;51321;50.428;8.378;2023-11-21T12:09:57;11.40;99.90
64855;DHT22;51321;50.428;8.378;2023-11-21T12:12:43;11.50;99.90
64855;DHT22;51321;50.428;8.378;2023-11-21T12:15:24;11.60;99.90
64855;DHT22;51321;50.428;8.378;2023-11-21T12:18:08;11.80;99.90
64855;DHT22;51321;50.428;8.378;2023-11-21T12:20:49;11.80;99.90
64855;DHT22;51321;50.428;8.378;2023-11-21T12:23:31;11.90;99.90
64855;DHT22;51321;50.428;8.378;2023-11-21T12:26:14;12.00;99.90
64855;DHT22;51321;50.428;8.378;2023-11-21T12:28:54;11.90;99.90
64855;DHT22;51321;50.428;8.378;2023-11-21T12:31:35;11.90;99.90
64855;DHT22;51321;50.428;8.378;2023-11-21T12:34:16;11.80;99.90
64855;DHT22;51321;50.428;8.378;2023-11-21T12:36:57;11.80;99.90
64855;DHT22;51321;50.428;8.378;2023-11-21T12:39:39;11.80;99.90
64855;DHT22;51321;50.428;8.378;2023-11-21T12:42:22;11.80;99.90
64855;DHT22;51321;50.428;8.378;2023-11-21T12:45:07;11.60;99.90
64855;DHT22;51321;50.428;8.378;2023-11-21T12:47:54;11.60;99.90
64855;DHT22;51321;50.428;8.378;2023-11-21T12:50:36;11.60;99.90
64855;DHT22;51321;50.428;8.378;2023-11-21T12:53:18;11.50;99.90
64855;DHT22;51321;50.428;8.378;2023-11-21T12:56:00;11.50;99.90
64855;DHT22;51321;50.428;8.378;2023-11-21T12:58:43;11.40;99.90
64855;DHT22;51321;50.428;8.378;2023-11-21T13:01:27;11.50;99.90
64855;DHT22;51321;50.428;8.378;2023-11-21T13:04:10;11.40;99.90
64855;DHT22;51321;50.428;8.378;2023-11-21T13:06:51;11.30;99.90
64855;DHT22;51321;50.428;8.378;2023-11-21T13:09:31;11.20;99.90
64855;DHT22;51321;50.428;8.378;2023-11-21T13:12:13;11.20;99.90
64855;DHT22;51321;50.428;8.378;2023-11-21T13:14:57;11.20;99.90
64855;DHT22;51321;50.428;8.378;2023-11-21T13:17:43;11.10;99.90
64855;DHT22;51321;50.428;8.378;2023-11-21T13:20:25;11.10;99.90
64855;DHT22;51321;50.428;8.378;2023-11-21T13:23:07;11.00;99.90
64855;DHT22;51321;50.428;8.378;2023-11-21T13:25:48;11.00;99.90
64855;DHT22;51321;50.428;8.378;2023-11-21T13:28:31;10.90;99.90
64855;DHT22;51321;50.428;8.378;2023-11-21T13:31:12;10.90;99.90
64855;DHT22;51321;50.428;8.378;2023-11-21T13:34:06;10.90;99.90
64855;DHT22;51321;50.428;8.378;2023-11-21T13:36:47;10.80;99.90
64855;DHT22;51321;50.428;8.378;2023-11-21T13:39:31;10.80;99.90
64855;DHT22;51321;50.428;8.378;2023-11-21T13:42:11;10.80;99.90
64855;DHT22;51321;50.428;8.378;2023-11-21T13:44:57;10.70;99.90
64855;DHT22;51321;50.428;8.378;2023-11-21T13:47:37;10.70;99.90
64855;DHT22;51321;50.428;8.378;2023-11-21T13:50:19;10.70;99.90
64855;DHT22;51321;50.428;8.378;2023-11-21T13:53:02;10.70;99.90
64855;DHT22;51321;50.428;8.378;2023-11-21T13:55:43;10.70;99.90
64855;DHT22;51321;50.428;8.378;2023-11-21T13:58:24;10.70;99.90
64855;DHT22;51321;50.428;8.378;2023-11-21T14:01:16;10.60;99.90
64855;DHT22;51321;50.428;8.378;2023-11-21T14:04:20;10.60;99.90
64855;DHT22;51321;50.428;8.378;2023-11-21T14:07:15;10.40;99.90
64855;DHT22;51321;50.428;8.378;2023-11-21T14:10:06;10.40;99.90
64855;DHT22;51321;50.428;8.378;2023-11-21T14:12:52;10.30;99.90
64855;DHT22;51321;50.428;8.378;2023-11-21T14:15:32;10.40;99.90
64855;DHT22;51321;50.428;8.378;2023-11-21T14:18:19;10.30;99.90
64855;DHT22;51321;50.428;8.378;2023-11-21T14:21:06;10.30;99.90
64855;DHT22;51321;50.428;8.378;2023-11-21T14:23:49;10.30;99.90
64855;DHT22;51321;50.428;8.378;2023-11-21T14:26:32;10.30;99.90
64855;DHT22;51321;50.428;8.378;2023-11-21T14:29:13;10.20;99.90
64855;DHT22;51321;50.428;8.378;2023-11-21T14:31:55;10.20;99.90
64855;DHT22;51321;50.428;8.378;2023-11-21T14:34:38;10.10;99.90
64855;DHT22;51321;50.428;8.378;2023-11-21T14:37:20;10.10;99.90
64855;DHT22;51321;50.428;8.378;2023-11-21T14:40:00;10.10;99.90
64855;DHT22;51321;50.428;8.378;2023-11-21T14:42:43;10.10;99.90
64855;DHT22;51321;50.428;8.378;2023-11-21T14:45:27;10.00;99.90
64855;DHT22;51321;50.428;8.378;2023-11-21T14:48:09;10.00;99.90
64855;DHT22;51321;50.428;8.378;2023-11-21T14:50:56;10.10;99.90
64855;DHT22;51321;50.428;8.378;2023-11-21T14:53:53;9.90;99.90
64855;DHT22;51321;50.428;8.378;2023-11-21T14:56:36;9.80;99.90
64855;DHT22;51321;50.428;8.378;2023-11-21T14:59:18;9.80;99.90
64855;DHT22;51321;50.428;8.378;2023-11-21T15:01:59;9.70;99.90
64855;DHT22;51321;50.428;8.378;2023-11-21T15:04:53;9.60;99.90
64855;DHT22;51321;50.428;8.378;2023-11-21T15:07:41;9.60;99.90
64855;DHT22;51321;50.428;8.378;2023-11-21T15:10:23;9.60;99.90
64855;DHT22;51321;50.428;8.378;2023-11-21T15:13:19;9.70;99.90
64855;DHT22;51321;50.428;8.378;2023-11-21T15:16:02;9.80;99.90
64855;DHT22;51321;50.428;8.378;2023-11-21T15:18:46;9.90;99.90
64855;DHT22;51321;50.428;8.378;2023-11-21T15:21:28;9.80;99.90
64855;DHT22;51321;50.428;8.378;2023-11-21T15:24:10;9.70;99.90
64855;DHT22;51321;50.428;8.378;2023-11-21T15:26:51;9.60;99.90
64855;DHT22;51321;50.428;8.378;2023-11-21T15:29:31;9.60;99.90
64855;DHT22;51321;50.428;8.378;2023-11-21T15:32:13;9.50;99.90
64855;DHT22;51321;50.428;8.378;2023-11-21T15:34:54;9.50;99.90
64855;DHT22;51321;50.428;8.378;2023-11-21T15:37:34;9.50;99.90
64855;DHT22;51321;50.428;8.378;2023-11-21T15:40:17;9.50;99.90
64855;DHT22;51321;50.428;8.378;2023-11-21T15:42:57;9.50;99.90
64855;DHT22;51321;50.428;8.378;2023-11-21T15:45:38;9.50;99.90
64855;DHT22;51321;50.428;8.378;2023-11-21T15:48:20;9.60;99.90
64855;DHT22;51321;50.428;8.378;2023-11-21T15:51:02;9.60;99.90
64855;DHT22;51321;50.428;8.378;2023-11-21T15:53:44;9.50;99.90
64855;DHT22;51321;50.428;8.378;2023-11-21T15:56:26;9.50;99.90
64855;DHT22;51321;50.428;8.378;2023-11-21T15:59:06;9.60;99.90
64855;DHT22;51321;50.428;8.378;2023-11-21T16:01:49;9.50;99.90
64855;DHT22;51321;50.428;8.378;2023-11-21T16:04:31;9.50;99.90
64855;DHT22;51321;50.428;8.378;2023-11-21T16:07:11;9.50;99.90
64855;DHT22;51321;50.428;8.378;2023-11-21T16:09:53;9.50;99.90
64855;DHT22;51321;50.428;8.378;2023-11-21T16:12:34;9.50;99.90
64855;DHT22;51321;50.428;8.378;2023-11-21T16:15:15;9.50;99.90
64855;DHT22;51321;50.428;8.378;2023-11-21T16:17:57;9.50;99.90
64855;DHT22;51321;50.428;8.378;2023-11-21T16:20:38;9.40;99.90
64855;DHT22;51321;50.428;8.378;2023-11-21T16:23:18;9.50;99.90
64855;DHT22;51321;50.428;8.378;2023-11-21T16:25:59;9.50;99.90
64855;DHT22;51321;50.428;8.378;2023-11-21T16:28:41;9.50;99.90
64855;DHT22;51321;50.428;8.378;2023-11-21T16:31:22;9.40;99.90
64855;DHT22;51321;50.428;8.378;2023-11-21T16:34:03;9.40;99.90
64855;DHT22;51321;50.428;8.378;2023-11-21T16:36:52;9.30;99.90
64855;DHT22;51321;50.428;8.378;2023-11-21T16:39:32;9.40;99.90
64855;DHT22;51321;50.428;8.378;2023-11-21T16:42:14;9.40;99.90
64855;DHT22;51321;50.428;8.378;2023-11-21T16:44:58;9.40;99.90
64855;DHT22;51321;50.428;8.378;2023-11-21T16:47:40;9.40;99.90
64855;DHT22;51321;50.428;8.378;2023-11-21T16:50:22;9.40;99.90
64855;DHT22;51321;50.428;8.378;2023-11-21T16:53:04;9.40;99.90
64855;DHT22;51321;50.428;8.378;2023-11-21T16:55:46;9.50;99.90
64855;DHT22;51321;50.428;8.378;2023-11-21T16:58:28;9.50;99.90
64855;DHT22;51321;50.428;8.378;2023-11-21T17:01:12;9.60;99.90
64855;DHT22;51321;50.428;8.378;2023-11-21T17:03:53;9.60;99.90
64855;DHT22;51321;50.428;8.378;2023-11-21T17:06:33;9.50;99.90
64855;DHT22;51321;50.428;8.378;2023-11-21T17:09:14;9.60;99.90
64855;DHT22;51321;50.428;8.378;2023-11-21T17:11:57;9.60;99.90
64855;DHT22;51321;50.428;8.378;2023-11-21T17:14:39;9.60;99.90
64855;DHT22;51321;50.428;8.378;2023-11-21T17:17:23;9.60;99.90
64855;DHT22;51321;50.428;8.378;2023-11-21T17:20:04;9.70;99.90